Valborg — OFNR — position and weather

sailwx.info

Track history (hours):
 
Tides and Currents Weather Stations Pressure Air Temp Water Temp Dewpoint Dewpoint Depression Visibility Wind Speed Wind Dir Waves Ship Positions

Valborg

Last reported at 2016-Jul-28 11:17 UTC. Time now 2016-Jul-30 13:08 UTC.
Position N 60°10' E 024°58'.

Length 30 m; draft 2.4 m.

Type: Sailing vessel. MMSI: 230108270.

Date/timePositionNaut miles runAvg speedWind from/ knotsBaromVisibWave heightAir tempDewpointWater temp
2016-Jul-28 11:17N 60°10' E 024°58'  
2016-Jul-21 11:09N 59°58' E 023°52'3 5.7
2016-Jul-21 10:33N 59°56' E 023°48'5 5.1
2016-Jul-21 09:33N 59°56' E 023°38'6 5.9
2016-Jul-21 08:33N 59°55' E 023°26'4 3.5
2016-Jul-21 07:33N 59°58' E 023°24'1 0.8
2016-Jul-21 06:31N 59°59' E 023°26'0 0.0
2016-Jul-21 05:31N 59°59' E 023°26'0 0.0
2016-Jul-21 04:31N 59°59' E 023°26'0 0.0
2016-Jul-21 03:31N 59°59' E 023°26'0 0.0
2016-Jul-21 02:31N 59°59' E 023°26'0 0.0
2016-Jul-21 01:31N 59°59' E 023°26'0 0.0
2016-Jul-21 00:31N 59°59' E 023°26'0 0.0
2016-Jul-20 23:22N 59°59' E 023°26'0 0.0
2016-Jul-20 22:10N 59°59' E 023°26'0 0.0
2016-Jul-20 21:22N 59°59' E 023°26'0 0.0
2016-Jul-20 20:31N 59°59' E 023°26'0 0.0
2016-Jul-20 19:25N 59°59' E 023°26'0 0.0
2016-Jul-20 18:28N 59°59' E 023°26'0 0.0
2016-Jul-20 17:28N 59°59' E 023°26'0 0.0
2016-Jul-20 16:28N 59°59' E 023°26'0 0.0
2016-Jul-20 15:31N 59°59' E 023°26'0 0.0
2016-Jul-20 14:31N 59°59' E 023°26'0 0.0
2016-Jul-20 13:31N 59°59' E 023°26'0 0.0
2016-Jul-20 12:28N 59°59' E 023°26'0 0.0
2016-Jul-20 11:31N 59°59' E 023°26'3 3.2
2016-Jul-20 10:33N 59°56' E 023°22'5 4.5
2016-Jul-20 09:33N 59°52' E 023°22'6 5.9
2016-Jul-20 08:33N 59°50' E 023°33'1 0.6
2016-Jul-20 07:33N 59°50' E 023°34'0 0.0
2016-Jul-20 06:30N 59°50' E 023°34'0 0.0
2016-Jul-20 05:33N 59°50' E 023°34'0 0.0
2016-Jul-20 04:33N 59°50' E 023°34'0 0.0
2016-Jul-20 03:33N 59°50' E 023°34'0 0.0
2016-Jul-20 02:33N 59°50' E 023°34'0 0.0
2016-Jul-20 01:33N 59°50' E 023°34'0 0.0
2016-Jul-20 00:33N 59°50' E 023°34'0 0.0
2016-Jul-19 23:33N 59°50' E 023°34'0 0.0
2016-Jul-19 22:33N 59°50' E 023°34'0 0.0
2016-Jul-19 21:33N 59°50' E 023°34'0 0.0
2016-Jul-19 20:33N 59°50' E 023°34'0 0.0
2016-Jul-19 19:33N 59°50' E 023°34'0 0.0
2016-Jul-19 18:33N 59°50' E 023°34'0 0.0
2016-Jul-19 17:33N 59°50' E 023°34'0 0.0
2016-Jul-19 16:33N 59°50' E 023°34'0 0.0
2016-Jul-19 15:33N 59°50' E 023°34'0 0.0
2016-Jul-19 14:27N 59°50' E 023°34'0 0.0
2016-Jul-19 13:27N 59°50' E 023°34'0 0.0
2016-Jul-19 12:27N 59°50' E 023°34'0 0.0
2016-Jul-19 11:27N 59°50' E 023°34'1 1.4
2016-Jul-19 10:33N 59°51' E 023°36'4 4.3
2016-Jul-19 09:33N 59°54' E 023°42'4 3.9
2016-Jul-19 08:30N 59°56' E 023°49'10 1.4
2016-Jul-19 01:33N 59°57' E 024°08'21 4.0
2016-Jul-18 20:23N 59°38' E 024°26'4 4.3
2016-Jul-18 19:33N 59°37' E 024°32'3 3.3
2016-Jul-18 18:34N 59°33' E 024°33'0 0.0
2016-Jul-18 17:31N 59°33' E 024°33'  
Track history (hours):
 
Tides and Currents Weather Stations Pressure Air Temp Water Temp Dewpoint Dewpoint Depression Visibility Wind Speed Wind Dir Waves Ship Positions

Valborg

Last reported at 2016-Jul-28 11:17 UTC. Time now 2016-Jul-30 13:08 UTC.
Position N 60°10' E 024°58'.

Length 30 m; draft 2.4 m.

Type: Sailing vessel. MMSI: 230108270.

Date/timePositionNaut miles runAvg speedWind from/ knotsBaromVisibWave heightAir tempDewpointWater temp
2016-Jul-28 11:17N 60°10' E 024°58'  
2016-Jul-21 11:09N 59°58' E 023°52'3 5.7
2016-Jul-21 10:33N 59°56' E 023°48'5 5.1
2016-Jul-21 09:33N 59°56' E 023°38'6 5.9
2016-Jul-21 08:33N 59°55' E 023°26'4 3.5
2016-Jul-21 07:33N 59°58' E 023°24'1 0.8
2016-Jul-21 06:31N 59°59' E 023°26'0 0.0
2016-Jul-21 05:31N 59°59' E 023°26'0 0.0
2016-Jul-21 04:31N 59°59' E 023°26'0 0.0
2016-Jul-21 03:31N 59°59' E 023°26'0 0.0
2016-Jul-21 02:31N 59°59' E 023°26'0 0.0
2016-Jul-21 01:31N 59°59' E 023°26'0 0.0
2016-Jul-21 00:31N 59°59' E 023°26'0 0.0
2016-Jul-20 23:22N 59°59' E 023°26'0 0.0
2016-Jul-20 22:10N 59°59' E 023°26'0 0.0
2016-Jul-20 21:22N 59°59' E 023°26'0 0.0
2016-Jul-20 20:31N 59°59' E 023°26'0 0.0
2016-Jul-20 19:25N 59°59' E 023°26'0 0.0
2016-Jul-20 18:28N 59°59' E 023°26'0 0.0
2016-Jul-20 17:28N 59°59' E 023°26'0 0.0
2016-Jul-20 16:28N 59°59' E 023°26'0 0.0
2016-Jul-20 15:31N 59°59' E 023°26'0 0.0
2016-Jul-20 14:31N 59°59' E 023°26'0 0.0
2016-Jul-20 13:31N 59°59' E 023°26'0 0.0
2016-Jul-20 12:28N 59°59' E 023°26'0 0.0
2016-Jul-20 11:31N 59°59' E 023°26'3 3.2
2016-Jul-20 10:33N 59°56' E 023°22'5 4.5
2016-Jul-20 09:33N 59°52' E 023°22'6 5.9
2016-Jul-20 08:33N 59°50' E 023°33'1 0.6
2016-Jul-20 07:33N 59°50' E 023°34'0 0.0
2016-Jul-20 06:30N 59°50' E 023°34'0 0.0
2016-Jul-20 05:33N 59°50' E 023°34'0 0.0
2016-Jul-20 04:33N 59°50' E 023°34'0 0.0
2016-Jul-20 03:33N 59°50' E 023°34'0 0.0
2016-Jul-20 02:33N 59°50' E 023°34'0 0.0
2016-Jul-20 01:33N 59°50' E 023°34'0 0.0
2016-Jul-20 00:33N 59°50' E 023°34'0 0.0
2016-Jul-19 23:33N 59°50' E 023°34'0 0.0
2016-Jul-19 22:33N 59°50' E 023°34'0 0.0
2016-Jul-19 21:33N 59°50' E 023°34'0 0.0
2016-Jul-19 20:33N 59°50' E 023°34'0 0.0
2016-Jul-19 19:33N 59°50' E 023°34'0 0.0
2016-Jul-19 18:33N 59°50' E 023°34'0 0.0
2016-Jul-19 17:33N 59°50' E 023°34'0 0.0
2016-Jul-19 16:33N 59°50' E 023°34'0 0.0
2016-Jul-19 15:33N 59°50' E 023°34'0 0.0
2016-Jul-19 14:27N 59°50' E 023°34'0 0.0
2016-Jul-19 13:27N 59°50' E 023°34'0 0.0
2016-Jul-19 12:27N 59°50' E 023°34'0 0.0
2016-Jul-19 11:27N 59°50' E 023°34'1 1.4
2016-Jul-19 10:33N 59°51' E 023°36'4 4.3
2016-Jul-19 09:33N 59°54' E 023°42'4 3.9
2016-Jul-19 08:30N 59°56' E 023°49'10 1.4
2016-Jul-19 01:33N 59°57' E 024°08'21 4.0
2016-Jul-18 20:23N 59°38' E 024°26'4 4.3
2016-Jul-18 19:33N 59°37' E 024°32'3 3.3
2016-Jul-18 18:34N 59°33' E 024°33'0 0.0
2016-Jul-18 17:31N 59°33' E 024°33'  

Dump ship's entire track history